Aviation Digital Data Service (ADDS)

Output produced by METARs form (0028 UTC 24 March 2019)
found at http://aviationweather.gov/metar/data/
 
TAF EPDA 232000Z 2321/2406 27008KT 8000 NSC